sensor_id;sensor_type;location;lat;lon;timestamp;P1;durP1;ratioP1;P2;durP2;ratioP2
28760;SDS011;15917;50.014;8.352;2023-02-11T00:00:59;60.85;;;22.95;;
28760;SDS011;15917;50.014;8.352;2023-02-11T00:03:24;51.65;;;22.23;;
28760;SDS011;15917;50.014;8.352;2023-02-11T00:05:57;61.97;;;23.00;;
28760;SDS011;15917;50.014;8.352;2023-02-11T00:08:23;59.22;;;22.27;;
28760;SDS011;15917;50.014;8.352;2023-02-11T00:10:53;54.42;;;23.42;;
28760;SDS011;15917;50.014;8.352;2023-02-11T00:13:20;52.42;;;22.42;;
28760;SDS011;15917;50.014;8.352;2023-02-11T00:15:45;58.75;;;22.83;;
28760;SDS011;15917;50.014;8.352;2023-02-11T00:18:11;50.80;;;22.08;;
28760;SDS011;15917;50.014;8.352;2023-02-11T00:20:37;54.20;;;22.65;;
28760;SDS011;15917;50.014;8.352;2023-02-11T00:23:03;57.60;;;23.13;;
28760;SDS011;15917;50.014;8.352;2023-02-11T00:25:29;63.35;;;24.70;;
28760;SDS011;15917;50.014;8.352;2023-02-11T00:27:55;55.28;;;22.45;;
28760;SDS011;15917;50.014;8.352;2023-02-11T00:30:20;68.68;;;24.13;;
28760;SDS011;15917;50.014;8.352;2023-02-11T00:32:46;61.47;;;23.50;;
28760;SDS011;15917;50.014;8.352;2023-02-11T00:35:12;64.40;;;23.30;;
28760;SDS011;15917;50.014;8.352;2023-02-11T00:37:37;54.25;;;22.58;;
28760;SDS011;15917;50.014;8.352;2023-02-11T00:40:03;57.33;;;22.90;;
28760;SDS011;15917;50.014;8.352;2023-02-11T00:44:56;67.32;;;22.70;;
28760;SDS011;15917;50.014;8.352;2023-02-11T00:47:22;66.82;;;25.33;;
28760;SDS011;15917;50.014;8.352;2023-02-11T00:49:48;62.78;;;24.77;;
28760;SDS011;15917;50.014;8.352;2023-02-11T00:52:13;70.35;;;28.33;;
28760;SDS011;15917;50.014;8.352;2023-02-11T00:54:39;82.43;;;30.83;;
28760;SDS011;15917;50.014;8.352;2023-02-11T00:57:05;75.90;;;30.23;;
28760;SDS011;15917;50.014;8.352;2023-02-11T00:59:31;80.93;;;30.55;;
28760;SDS011;15917;50.014;8.352;2023-02-11T01:01:57;77.53;;;30.60;;
28760;SDS011;15917;50.014;8.352;2023-02-11T01:04:22;82.88;;;31.98;;
28760;SDS011;15917;50.014;8.352;2023-02-11T01:06:50;81.13;;;32.17;;
28760;SDS011;15917;50.014;8.352;2023-02-11T01:09:16;67.03;;;30.83;;
28760;SDS011;15917;50.014;8.352;2023-02-11T01:11:42;74.05;;;29.60;;
28760;SDS011;15917;50.014;8.352;2023-02-11T01:16:35;87.13;;;30.38;;
28760;SDS011;15917;50.014;8.352;2023-02-11T01:19:01;81.60;;;31.60;;
28760;SDS011;15917;50.014;8.352;2023-02-11T01:21:27;81.63;;;31.20;;
28760;SDS011;15917;50.014;8.352;2023-02-11T01:23:52;83.75;;;32.47;;
28760;SDS011;15917;50.014;8.352;2023-02-11T01:26:18;89.57;;;32.42;;
28760;SDS011;15917;50.014;8.352;2023-02-11T01:28:43;82.93;;;33.13;;
28760;SDS011;15917;50.014;8.352;2023-02-11T01:31:09;95.88;;;33.92;;
28760;SDS011;15917;50.014;8.352;2023-02-11T01:33:35;80.82;;;32.05;;
28760;SDS011;15917;50.014;8.352;2023-02-11T01:36:01;87.95;;;36.03;;
28760;SDS011;15917;50.014;8.352;2023-02-11T01:38:28;92.10;;;33.47;;
28760;SDS011;15917;50.014;8.352;2023-02-11T01:41:00;85.37;;;33.97;;
28760;SDS011;15917;50.014;8.352;2023-02-11T01:43:34;81.43;;;34.70;;
28760;SDS011;15917;50.014;8.352;2023-02-11T01:46:03;89.55;;;34.67;;
28760;SDS011;15917;50.014;8.352;2023-02-11T01:48:40;93.28;;;34.70;;
28760;SDS011;15917;50.014;8.352;2023-02-11T01:51:09;83.03;;;33.70;;
28760;SDS011;15917;50.014;8.352;2023-02-11T01:53:42;86.80;;;34.47;;
28760;SDS011;15917;50.014;8.352;2023-02-11T01:56:29;81.90;;;33.78;;
28760;SDS011;15917;50.014;8.352;2023-02-11T01:59:16;92.15;;;34.10;;
28760;SDS011;15917;50.014;8.352;2023-02-11T02:01:56;87.20;;;34.55;;
28760;SDS011;15917;50.014;8.352;2023-02-11T02:04:27;80.45;;;33.38;;
28760;SDS011;15917;50.014;8.352;2023-02-11T02:07:05;82.85;;;32.65;;
28760;SDS011;15917;50.014;8.352;2023-02-11T02:09:48;83.20;;;33.95;;
28760;SDS011;15917;50.014;8.352;2023-02-11T02:12:21;85.30;;;34.80;;
28760;SDS011;15917;50.014;8.352;2023-02-11T02:14:46;89.15;;;34.15;;
28760;SDS011;15917;50.014;8.352;2023-02-11T02:17:17;79.63;;;33.20;;
28760;SDS011;15917;50.014;8.352;2023-02-11T02:22:43;79.60;;;32.83;;
28760;SDS011;15917;50.014;8.352;2023-02-11T02:31:38;79.82;;;34.00;;
28760;SDS011;15917;50.014;8.352;2023-02-11T02:36:56;75.35;;;32.50;;
28760;SDS011;15917;50.014;8.352;2023-02-11T02:39:30;83.15;;;34.58;;
28760;SDS011;15917;50.014;8.352;2023-02-11T02:41:59;85.30;;;33.60;;
28760;SDS011;15917;50.014;8.352;2023-02-11T02:44:26;76.95;;;33.30;;
28760;SDS011;15917;50.014;8.352;2023-02-11T02:46:53;90.20;;;35.00;;
28760;SDS011;15917;50.014;8.352;2023-02-11T02:49:18;78.53;;;34.35;;
28760;SDS011;15917;50.014;8.352;2023-02-11T02:56:54;81.78;;;31.85;;
28760;SDS011;15917;50.014;8.352;2023-02-11T03:02:17;88.82;;;33.67;;
28760;SDS011;15917;50.014;8.352;2023-02-11T03:05:11;81.68;;;33.40;;
28760;SDS011;15917;50.014;8.352;2023-02-11T03:08:01;86.38;;;33.25;;
28760;SDS011;15917;50.014;8.352;2023-02-11T03:10:44;83.03;;;35.47;;
28760;SDS011;15917;50.014;8.352;2023-02-11T03:13:15;86.93;;;33.05;;
28760;SDS011;15917;50.014;8.352;2023-02-11T03:15:45;86.50;;;35.15;;
28760;SDS011;15917;50.014;8.352;2023-02-11T03:18:16;81.53;;;35.38;;
28760;SDS011;15917;50.014;8.352;2023-02-11T03:20:46;90.20;;;37.05;;
28760;SDS011;15917;50.014;8.352;2023-02-11T03:23:18;94.63;;;34.25;;
28760;SDS011;15917;50.014;8.352;2023-02-11T03:25:58;86.38;;;33.40;;
28760;SDS011;15917;50.014;8.352;2023-02-11T03:28:42;85.22;;;34.28;;
28760;SDS011;15917;50.014;8.352;2023-02-11T03:37:04;78.55;;;31.95;;
28760;SDS011;15917;50.014;8.352;2023-02-11T03:39:36;87.25;;;32.95;;
28760;SDS011;15917;50.014;8.352;2023-02-11T03:42:04;84.13;;;33.88;;
28760;SDS011;15917;50.014;8.352;2023-02-11T03:44:34;81.85;;;34.55;;
28760;SDS011;15917;50.014;8.352;2023-02-11T03:47:04;84.38;;;34.08;;
28760;SDS011;15917;50.014;8.352;2023-02-11T03:49:33;85.55;;;33.15;;
28760;SDS011;15917;50.014;8.352;2023-02-11T03:52:00;90.45;;;34.15;;
28760;SDS011;15917;50.014;8.352;2023-02-11T03:54:28;81.40;;;33.70;;
28760;SDS011;15917;50.014;8.352;2023-02-11T03:56:55;88.70;;;34.40;;
28760;SDS011;15917;50.014;8.352;2023-02-11T03:59:23;89.55;;;33.15;;
28760;SDS011;15917;50.014;8.352;2023-02-11T04:01:49;80.88;;;32.35;;
28760;SDS011;15917;50.014;8.352;2023-02-11T04:04:15;81.72;;;35.03;;
28760;SDS011;15917;50.014;8.352;2023-02-11T04:06:40;84.05;;;34.00;;
28760;SDS011;15917;50.014;8.352;2023-02-11T04:09:07;86.07;;;33.25;;
28760;SDS011;15917;50.014;8.352;2023-02-11T04:11:33;86.50;;;32.97;;
28760;SDS011;15917;50.014;8.352;2023-02-11T04:13:58;85.68;;;34.38;;
28760;SDS011;15917;50.014;8.352;2023-02-11T04:16:25;88.13;;;33.65;;
28760;SDS011;15917;50.014;8.352;2023-02-11T04:18:51;82.32;;;33.40;;
28760;SDS011;15917;50.014;8.352;2023-02-11T04:21:16;78.47;;;34.60;;
28760;SDS011;15917;50.014;8.352;2023-02-11T04:23:42;81.10;;;32.17;;
28760;SDS011;15917;50.014;8.352;2023-02-11T04:26:08;79.00;;;32.05;;
28760;SDS011;15917;50.014;8.352;2023-02-11T04:28:33;76.85;;;32.10;;
28760;SDS011;15917;50.014;8.352;2023-02-11T04:31:00;70.72;;;31.90;;
28760;SDS011;15917;50.014;8.352;2023-02-11T04:33:26;76.65;;;31.85;;
28760;SDS011;15917;50.014;8.352;2023-02-11T04:35:51;74.35;;;30.27;;
28760;SDS011;15917;50.014;8.352;2023-02-11T04:38:17;77.07;;;31.10;;
28760;SDS011;15917;50.014;8.352;2023-02-11T04:40:42;81.38;;;31.73;;
28760;SDS011;15917;50.014;8.352;2023-02-11T04:43:08;76.53;;;31.10;;
28760;SDS011;15917;50.014;8.352;2023-02-11T04:45:33;69.45;;;27.77;;
28760;SDS011;15917;50.014;8.352;2023-02-11T04:48:02;73.45;;;31.30;;
28760;SDS011;15917;50.014;8.352;2023-02-11T04:50:28;70.97;;;30.05;;
28760;SDS011;15917;50.014;8.352;2023-02-11T04:52:54;80.60;;;29.80;;
28760;SDS011;15917;50.014;8.352;2023-02-11T04:55:19;73.90;;;29.35;;
28760;SDS011;15917;50.014;8.352;2023-02-11T04:57:45;72.85;;;28.50;;
28760;SDS011;15917;50.014;8.352;2023-02-11T05:00:10;71.68;;;28.38;;
28760;SDS011;15917;50.014;8.352;2023-02-11T05:02:36;78.45;;;29.00;;
28760;SDS011;15917;50.014;8.352;2023-02-11T05:05:02;67.82;;;29.55;;
28760;SDS011;15917;50.014;8.352;2023-02-11T05:07:28;62.60;;;27.15;;
28760;SDS011;15917;50.014;8.352;2023-02-11T05:09:54;81.95;;;28.80;;
28760;SDS011;15917;50.014;8.352;2023-02-11T05:12:20;67.40;;;27.95;;
28760;SDS011;15917;50.014;8.352;2023-02-11T05:14:45;64.15;;;28.08;;
28760;SDS011;15917;50.014;8.352;2023-02-11T05:17:11;76.13;;;28.48;;
28760;SDS011;15917;50.014;8.352;2023-02-11T05:19:37;70.88;;;26.95;;
28760;SDS011;15917;50.014;8.352;2023-02-11T05:22:02;69.28;;;28.08;;
28760;SDS011;15917;50.014;8.352;2023-02-11T05:24:29;66.47;;;28.00;;
28760;SDS011;15917;50.014;8.352;2023-02-11T05:26:57;68.97;;;28.55;;
28760;SDS011;15917;50.014;8.352;2023-02-11T05:29:23;72.32;;;28.73;;
28760;SDS011;15917;50.014;8.352;2023-02-11T05:31:49;76.68;;;29.40;;
28760;SDS011;15917;50.014;8.352;2023-02-11T05:34:14;83.75;;;29.73;;
28760;SDS011;15917;50.014;8.352;2023-02-11T05:36:40;68.32;;;29.15;;
28760;SDS011;15917;50.014;8.352;2023-02-11T05:39:05;70.40;;;28.17;;
28760;SDS011;15917;50.014;8.352;2023-02-11T05:41:31;85.32;;;30.05;;
28760;SDS011;15917;50.014;8.352;2023-02-11T05:43:57;71.13;;;28.45;;
28760;SDS011;15917;50.014;8.352;2023-02-11T05:46:22;69.85;;;28.75;;
28760;SDS011;15917;50.014;8.352;2023-02-11T05:48:48;73.35;;;30.05;;
28760;SDS011;15917;50.014;8.352;2023-02-11T05:51:13;68.38;;;29.23;;
28760;SDS011;15917;50.014;8.352;2023-02-11T05:53:39;69.47;;;29.67;;
28760;SDS011;15917;50.014;8.352;2023-02-11T05:56:04;63.88;;;28.23;;
28760;SDS011;15917;50.014;8.352;2023-02-11T05:58:31;77.63;;;29.85;;
28760;SDS011;15917;50.014;8.352;2023-02-11T06:00:56;64.95;;;27.60;;
28760;SDS011;15917;50.014;8.352;2023-02-11T06:03:22;68.88;;;28.83;;
28760;SDS011;15917;50.014;8.352;2023-02-11T06:05:47;72.85;;;28.90;;
28760;SDS011;15917;50.014;8.352;2023-02-11T06:08:13;66.13;;;28.00;;
28760;SDS011;15917;50.014;8.352;2023-02-11T06:10:39;73.00;;;28.30;;
28760;SDS011;15917;50.014;8.352;2023-02-11T06:15:32;71.72;;;28.20;;
28760;SDS011;15917;50.014;8.352;2023-02-11T06:17:58;68.07;;;28.35;;
28760;SDS011;15917;50.014;8.352;2023-02-11T06:20:23;68.70;;;29.98;;
28760;SDS011;15917;50.014;8.352;2023-02-11T06:22:49;70.63;;;27.00;;
28760;SDS011;15917;50.014;8.352;2023-02-11T06:25:14;63.33;;;27.35;;
28760;SDS011;15917;50.014;8.352;2023-02-11T06:27:40;71.65;;;28.42;;
28760;SDS011;15917;50.014;8.352;2023-02-11T06:30:06;74.72;;;28.63;;
28760;SDS011;15917;50.014;8.352;2023-02-11T06:32:32;73.85;;;28.63;;
28760;SDS011;15917;50.014;8.352;2023-02-11T06:34:57;74.90;;;30.08;;
28760;SDS011;15917;50.014;8.352;2023-02-11T06:37:23;71.82;;;29.13;;
28760;SDS011;15917;50.014;8.352;2023-02-11T06:39:49;68.57;;;28.42;;
28760;SDS011;15917;50.014;8.352;2023-02-11T06:42:14;65.45;;;27.70;;
28760;SDS011;15917;50.014;8.352;2023-02-11T06:44:40;65.28;;;27.63;;
28760;SDS011;15917;50.014;8.352;2023-02-11T06:47:06;70.10;;;28.48;;
28760;SDS011;15917;50.014;8.352;2023-02-11T06:49:31;75.40;;;28.60;;
28760;SDS011;15917;50.014;8.352;2023-02-11T06:51:57;73.07;;;28.80;;
28760;SDS011;15917;50.014;8.352;2023-02-11T06:54:22;68.72;;;28.90;;
28760;SDS011;15917;50.014;8.352;2023-02-11T06:56:48;74.38;;;29.17;;
28760;SDS011;15917;50.014;8.352;2023-02-11T06:59:17;72.05;;;28.85;;
28760;SDS011;15917;50.014;8.352;2023-02-11T07:01:44;75.78;;;30.27;;
28760;SDS011;15917;50.014;8.352;2023-02-11T07:04:10;70.63;;;29.40;;
28760;SDS011;15917;50.014;8.352;2023-02-11T07:06:36;77.57;;;31.10;;
28760;SDS011;15917;50.014;8.352;2023-02-11T07:09:03;71.88;;;28.98;;
28760;SDS011;15917;50.014;8.352;2023-02-11T07:11:29;69.38;;;28.50;;
28760;SDS011;15917;50.014;8.352;2023-02-11T07:13:58;68.65;;;29.63;;
28760;SDS011;15917;50.014;8.352;2023-02-11T07:16:25;68.85;;;29.38;;
28760;SDS011;15917;50.014;8.352;2023-02-11T07:18:51;75.97;;;29.35;;
28760;SDS011;15917;50.014;8.352;2023-02-11T07:21:18;75.68;;;29.58;;
28760;SDS011;15917;50.014;8.352;2023-02-11T07:23:45;68.80;;;28.80;;
28760;SDS011;15917;50.014;8.352;2023-02-11T07:26:13;67.53;;;27.27;;
28760;SDS011;15917;50.014;8.352;2023-02-11T07:28:41;62.28;;;26.52;;
28760;SDS011;15917;50.014;8.352;2023-02-11T07:31:11;66.40;;;27.48;;
28760;SDS011;15917;50.014;8.352;2023-02-11T07:33:42;73.20;;;28.70;;
28760;SDS011;15917;50.014;8.352;2023-02-11T07:38:36;71.95;;;29.02;;
28760;SDS011;15917;50.014;8.352;2023-02-11T07:41:03;78.65;;;26.58;;
28760;SDS011;15917;50.014;8.352;2023-02-11T07:43:30;67.80;;;28.35;;
28760;SDS011;15917;50.014;8.352;2023-02-11T07:45:56;73.13;;;29.17;;
28760;SDS011;15917;50.014;8.352;2023-02-11T07:48:22;60.72;;;27.05;;
28760;SDS011;15917;50.014;8.352;2023-02-11T07:50:48;70.70;;;28.08;;
28760;SDS011;15917;50.014;8.352;2023-02-11T07:53:14;60.90;;;25.17;;
28760;SDS011;15917;50.014;8.352;2023-02-11T07:55:41;63.65;;;27.52;;
28760;SDS011;15917;50.014;8.352;2023-02-11T07:58:07;76.00;;;27.50;;
28760;SDS011;15917;50.014;8.352;2023-02-11T08:00:33;64.32;;;26.25;;
28760;SDS011;15917;50.014;8.352;2023-02-11T08:02:58;71.57;;;27.02;;
28760;SDS011;15917;50.014;8.352;2023-02-11T08:05:24;59.97;;;26.85;;
28760;SDS011;15917;50.014;8.352;2023-02-11T08:07:51;66.32;;;28.00;;
28760;SDS011;15917;50.014;8.352;2023-02-11T08:10:17;61.90;;;27.55;;
28760;SDS011;15917;50.014;8.352;2023-02-11T08:12:42;65.90;;;26.50;;
28760;SDS011;15917;50.014;8.352;2023-02-11T08:15:08;64.85;;;26.55;;
28760;SDS011;15917;50.014;8.352;2023-02-11T08:17:34;68.97;;;27.65;;
28760;SDS011;15917;50.014;8.352;2023-02-11T08:20:00;70.90;;;31.05;;
28760;SDS011;15917;50.014;8.352;2023-02-11T08:22:26;67.30;;;28.50;;
28760;SDS011;15917;50.014;8.352;2023-02-11T08:24:52;68.45;;;27.25;;
28760;SDS011;15917;50.014;8.352;2023-02-11T08:27:17;66.47;;;27.65;;
28760;SDS011;15917;50.014;8.352;2023-02-11T08:29:43;70.07;;;28.73;;
28760;SDS011;15917;50.014;8.352;2023-02-11T08:32:09;68.35;;;27.13;;
28760;SDS011;15917;50.014;8.352;2023-02-11T08:34:34;72.03;;;30.25;;
28760;SDS011;15917;50.014;8.352;2023-02-11T08:37:01;71.43;;;28.13;;
28760;SDS011;15917;50.014;8.352;2023-02-11T08:39:27;56.25;;;27.58;;
28760;SDS011;15917;50.014;8.352;2023-02-11T08:41:53;65.07;;;27.60;;
28760;SDS011;15917;50.014;8.352;2023-02-11T08:44:20;70.60;;;27.30;;
28760;SDS011;15917;50.014;8.352;2023-02-11T08:46:47;71.45;;;27.00;;
28760;SDS011;15917;50.014;8.352;2023-02-11T08:49:13;75.22;;;25.55;;
28760;SDS011;15917;50.014;8.352;2023-02-11T08:51:39;56.92;;;26.42;;
28760;SDS011;15917;50.014;8.352;2023-02-11T08:54:05;57.22;;;25.40;;
28760;SDS011;15917;50.014;8.352;2023-02-11T08:58:58;64.72;;;24.63;;
28760;SDS011;15917;50.014;8.352;2023-02-11T09:01:26;55.55;;;25.45;;
28760;SDS011;15917;50.014;8.352;2023-02-11T09:03:53;54.63;;;24.27;;
28760;SDS011;15917;50.014;8.352;2023-02-11T09:06:20;57.95;;;25.33;;
28760;SDS011;15917;50.014;8.352;2023-02-11T09:08:48;56.00;;;24.88;;
28760;SDS011;15917;50.014;8.352;2023-02-11T09:11:16;62.35;;;23.38;;
28760;SDS011;15917;50.014;8.352;2023-02-11T09:16:14;55.08;;;22.63;;
28760;SDS011;15917;50.014;8.352;2023-02-11T09:18:43;55.20;;;22.30;;
28760;SDS011;15917;50.014;8.352;2023-02-11T09:21:09;61.20;;;23.95;;
28760;SDS011;15917;50.014;8.352;2023-02-11T09:23:35;51.35;;;22.77;;
28760;SDS011;15917;50.014;8.352;2023-02-11T09:26:07;51.80;;;22.13;;
28760;SDS011;15917;50.014;8.352;2023-02-11T09:28:35;53.70;;;22.90;;
28760;SDS011;15917;50.014;8.352;2023-02-11T09:31:04;51.15;;;24.00;;
28760;SDS011;15917;50.014;8.352;2023-02-11T09:33:36;54.15;;;24.13;;
28760;SDS011;15917;50.014;8.352;2023-02-11T09:36:05;63.25;;;24.75;;
28760;SDS011;15917;50.014;8.352;2023-02-11T09:38:31;55.33;;;23.75;;
28760;SDS011;15917;50.014;8.352;2023-02-11T09:40:57;55.90;;;24.35;;
28760;SDS011;15917;50.014;8.352;2023-02-11T09:43:23;59.53;;;24.17;;
28760;SDS011;15917;50.014;8.352;2023-02-11T09:45:56;57.75;;;24.45;;
28760;SDS011;15917;50.014;8.352;2023-02-11T09:48:23;62.10;;;25.27;;
28760;SDS011;15917;50.014;8.352;2023-02-11T09:50:56;60.63;;;24.08;;
28760;SDS011;15917;50.014;8.352;2023-02-11T09:53:28;60.08;;;24.65;;
28760;SDS011;15917;50.014;8.352;2023-02-11T09:56:00;55.97;;;24.42;;
28760;SDS011;15917;50.014;8.352;2023-02-11T09:58:28;58.88;;;24.42;;
28760;SDS011;15917;50.014;8.352;2023-02-11T10:12:09;60.50;;;25.87;;
28760;SDS011;15917;50.014;8.352;2023-02-11T10:14:48;59.22;;;24.60;;
28760;SDS011;15917;50.014;8.352;2023-02-11T10:23:09;59.63;;;23.73;;
28760;SDS011;15917;50.014;8.352;2023-02-11T10:28:13;55.70;;;22.60;;
28760;SDS011;15917;50.014;8.352;2023-02-11T10:30:48;48.13;;;21.95;;
28760;SDS011;15917;50.014;8.352;2023-02-11T10:33:29;53.95;;;23.17;;
28760;SDS011;15917;50.014;8.352;2023-02-11T10:35:58;59.28;;;23.55;;
28760;SDS011;15917;50.014;8.352;2023-02-11T10:38:24;50.28;;;22.75;;
28760;SDS011;15917;50.014;8.352;2023-02-11T10:40:51;56.60;;;23.47;;
28760;SDS011;15917;50.014;8.352;2023-02-11T10:43:18;48.00;;;22.83;;
28760;SDS011;15917;50.014;8.352;2023-02-11T10:45:52;54.88;;;24.17;;
28760;SDS011;15917;50.014;8.352;2023-02-11T10:51:17;49.15;;;22.17;;
28760;SDS011;15917;50.014;8.352;2023-02-11T10:53:44;53.72;;;21.63;;
28760;SDS011;15917;50.014;8.352;2023-02-11T10:56:12;52.33;;;22.15;;
28760;SDS011;15917;50.014;8.352;2023-02-11T10:58:45;50.75;;;21.50;;
28760;SDS011;15917;50.014;8.352;2023-02-11T11:01:21;50.50;;;22.05;;
28760;SDS011;15917;50.014;8.352;2023-02-11T11:03:48;56.17;;;22.15;;
28760;SDS011;15917;50.014;8.352;2023-02-11T11:06:15;50.75;;;23.33;;
28760;SDS011;15917;50.014;8.352;2023-02-11T11:08:51;49.90;;;21.98;;
28760;SDS011;15917;50.014;8.352;2023-02-11T11:11:18;56.90;;;22.65;;
28760;SDS011;15917;50.014;8.352;2023-02-11T11:16:27;46.33;;;22.02;;
28760;SDS011;15917;50.014;8.352;2023-02-11T11:21:33;48.73;;;22.00;;
28760;SDS011;15917;50.014;8.352;2023-02-11T11:24:01;51.10;;;21.42;;
28760;SDS011;15917;50.014;8.352;2023-02-11T11:26:50;50.03;;;21.80;;
28760;SDS011;15917;50.014;8.352;2023-02-11T11:29:16;57.00;;;21.10;;
28760;SDS011;15917;50.014;8.352;2023-02-11T11:31:46;43.47;;;20.13;;
28760;SDS011;15917;50.014;8.352;2023-02-11T11:34:20;43.90;;;20.88;;
28760;SDS011;15917;50.014;8.352;2023-02-11T11:36:57;40.88;;;20.58;;
28760;SDS011;15917;50.014;8.352;2023-02-11T11:39:28;48.00;;;20.65;;
28760;SDS011;15917;50.014;8.352;2023-02-11T11:41:58;43.20;;;19.73;;
28760;SDS011;15917;50.014;8.352;2023-02-11T11:44:30;43.25;;;19.75;;
28760;SDS011;15917;50.014;8.352;2023-02-11T11:52:34;40.88;;;20.02;;
28760;SDS011;15917;50.014;8.352;2023-02-11T11:55:05;51.50;;;20.38;;
28760;SDS011;15917;50.014;8.352;2023-02-11T11:57:41;43.63;;;18.77;;
28760;SDS011;15917;50.014;8.352;2023-02-11T12:00:14;48.10;;;20.35;;
28760;SDS011;15917;50.014;8.352;2023-02-11T12:05:26;45.75;;;18.63;;
28760;SDS011;15917;50.014;8.352;2023-02-11T12:10:35;39.80;;;17.70;;
28760;SDS011;15917;50.014;8.352;2023-02-11T12:13:11;40.20;;;17.25;;
28760;SDS011;15917;50.014;8.352;2023-02-11T12:16:02;35.22;;;17.70;;
28760;SDS011;15917;50.014;8.352;2023-02-11T12:21:33;47.83;;;17.10;;
28760;SDS011;15917;50.014;8.352;2023-02-11T12:27:17;43.03;;;17.35;;
28760;SDS011;15917;50.014;8.352;2023-02-11T12:30:15;38.72;;;16.85;;
28760;SDS011;15917;50.014;8.352;2023-02-11T12:44:53;38.72;;;15.23;;
28760;SDS011;15917;50.014;8.352;2023-02-11T12:50:57;37.58;;;15.43;;
28760;SDS011;15917;50.014;8.352;2023-02-11T12:53:39;35.33;;;15.95;;
28760;SDS011;15917;50.014;8.352;2023-02-11T12:56:28;34.78;;;16.27;;
28760;SDS011;15917;50.014;8.352;2023-02-11T12:58:59;37.30;;;16.27;;
28760;SDS011;15917;50.014;8.352;2023-02-11T13:01:31;33.42;;;15.30;;
28760;SDS011;15917;50.014;8.352;2023-02-11T13:06:54;33.10;;;14.85;;
28760;SDS011;15917;50.014;8.352;2023-02-11T13:09:34;34.50;;;15.80;;
28760;SDS011;15917;50.014;8.352;2023-02-11T13:12:05;36.67;;;15.15;;
28760;SDS011;15917;50.014;8.352;2023-02-11T13:14:52;31.98;;;15.65;;
28760;SDS011;15917;50.014;8.352;2023-02-11T13:17:32;35.63;;;14.60;;
28760;SDS011;15917;50.014;8.352;2023-02-11T13:20:25;27.67;;;12.63;;
28760;SDS011;15917;50.014;8.352;2023-02-11T13:23:22;31.10;;;13.70;;
28760;SDS011;15917;50.014;8.352;2023-02-11T13:26:07;31.92;;;12.93;;
28760;SDS011;15917;50.014;8.352;2023-02-11T13:31:33;23.73;;;10.80;;
28760;SDS011;15917;50.014;8.352;2023-02-11T13:33:58;21.83;;;11.23;;
28760;SDS011;15917;50.014;8.352;2023-02-11T13:36:25;26.88;;;11.25;;
28760;SDS011;15917;50.014;8.352;2023-02-11T13:38:53;20.45;;;9.15;;
28760;SDS011;15917;50.014;8.352;2023-02-11T13:41:25;22.33;;;9.63;;
28760;SDS011;15917;50.014;8.352;2023-02-11T13:44:12;20.60;;;9.60;;
28760;SDS011;15917;50.014;8.352;2023-02-11T13:49:29;24.67;;;11.90;;
28760;SDS011;15917;50.014;8.352;2023-02-11T13:52:17;27.80;;;11.95;;
28760;SDS011;15917;50.014;8.352;2023-02-11T13:54:52;29.92;;;11.75;;
28760;SDS011;15917;50.014;8.352;2023-02-11T13:57:21;23.98;;;11.35;;
28760;SDS011;15917;50.014;8.352;2023-02-11T13:59:59;26.58;;;12.77;;
28760;SDS011;15917;50.014;8.352;2023-02-11T14:02:43;23.98;;;11.75;;
28760;SDS011;15917;50.014;8.352;2023-02-11T14:14:15;27.20;;;10.70;;
28760;SDS011;15917;50.014;8.352;2023-02-11T14:19:43;28.52;;;11.25;;
28760;SDS011;15917;50.014;8.352;2023-02-11T14:22:14;28.27;;;11.20;;
28760;SDS011;15917;50.014;8.352;2023-02-11T14:24:48;23.05;;;10.20;;
28760;SDS011;15917;50.014;8.352;2023-02-11T14:30:19;26.08;;;11.75;;
28760;SDS011;15917;50.014;8.352;2023-02-11T14:38:25;19.73;;;9.80;;
28760;SDS011;15917;50.014;8.352;2023-02-11T14:41:24;20.13;;;9.10;;
28760;SDS011;15917;50.014;8.352;2023-02-11T14:43:53;20.20;;;9.30;;
28760;SDS011;15917;50.014;8.352;2023-02-11T14:46:23;23.02;;;9.73;;
28760;SDS011;15917;50.014;8.352;2023-02-11T14:48:53;22.45;;;10.57;;
28760;SDS011;15917;50.014;8.352;2023-02-11T14:51:22;22.17;;;10.68;;
28760;SDS011;15917;50.014;8.352;2023-02-11T14:54:02;26.58;;;11.43;;
28760;SDS011;15917;50.014;8.352;2023-02-11T14:56:37;23.42;;;10.75;;
28760;SDS011;15917;50.014;8.352;2023-02-11T14:59:12;21.10;;;11.43;;
28760;SDS011;15917;50.014;8.352;2023-02-11T15:01:45;24.02;;;11.10;;
28760;SDS011;15917;50.014;8.352;2023-02-11T15:04:21;22.55;;;10.27;;
28760;SDS011;15917;50.014;8.352;2023-02-11T15:06:49;20.48;;;10.15;;
28760;SDS011;15917;50.014;8.352;2023-02-11T15:09:16;21.00;;;10.18;;
28760;SDS011;15917;50.014;8.352;2023-02-11T15:11:49;21.23;;;9.73;;
28760;SDS011;15917;50.014;8.352;2023-02-11T15:14:23;20.60;;;10.35;;
28760;SDS011;15917;50.014;8.352;2023-02-11T15:16:51;23.98;;;11.27;;
28760;SDS011;15917;50.014;8.352;2023-02-11T15:19:21;20.30;;;10.55;;
28760;SDS011;15917;50.014;8.352;2023-02-11T15:21:55;22.10;;;10.45;;
28760;SDS011;15917;50.014;8.352;2023-02-11T15:26:54;23.45;;;10.82;;
28760;SDS011;15917;50.014;8.352;2023-02-11T15:29:25;24.65;;;10.05;;
28760;SDS011;15917;50.014;8.352;2023-02-11T15:32:02;24.88;;;10.90;;
28760;SDS011;15917;50.014;8.352;2023-02-11T15:34:49;28.63;;;11.50;;
28760;SDS011;15917;50.014;8.352;2023-02-11T15:39:45;20.45;;;10.10;;
28760;SDS011;15917;50.014;8.352;2023-02-11T15:45:06;22.35;;;10.60;;
28760;SDS011;15917;50.014;8.352;2023-02-11T15:47:49;19.95;;;9.68;;
28760;SDS011;15917;50.014;8.352;2023-02-11T15:50:32;31.67;;;9.60;;
28760;SDS011;15917;50.014;8.352;2023-02-11T15:53:12;23.20;;;9.98;;
28760;SDS011;15917;50.014;8.352;2023-02-11T15:55:45;21.52;;;10.45;;
28760;SDS011;15917;50.014;8.352;2023-02-11T15:58:13;27.47;;;10.40;;
28760;SDS011;15917;50.014;8.352;2023-02-11T16:00:46;26.45;;;11.23;;
28760;SDS011;15917;50.014;8.352;2023-02-11T16:03:21;34.22;;;11.73;;
28760;SDS011;15917;50.014;8.352;2023-02-11T16:05:48;23.45;;;11.15;;
28760;SDS011;15917;50.014;8.352;2023-02-11T16:08:21;27.33;;;13.15;;
28760;SDS011;15917;50.014;8.352;2023-02-11T16:10:54;31.33;;;12.82;;
28760;SDS011;15917;50.014;8.352;2023-02-11T16:13:27;29.98;;;13.43;;
28760;SDS011;15917;50.014;8.352;2023-02-11T16:16:01;23.73;;;12.38;;
28760;SDS011;15917;50.014;8.352;2023-02-11T16:18:33;25.20;;;13.07;;
28760;SDS011;15917;50.014;8.352;2023-02-11T16:21:04;38.53;;;13.70;;
28760;SDS011;15917;50.014;8.352;2023-02-11T16:26:01;30.40;;;11.77;;
28760;SDS011;15917;50.014;8.352;2023-02-11T16:28:35;37.17;;;12.80;;
28760;SDS011;15917;50.014;8.352;2023-02-11T16:31:01;23.50;;;12.07;;
28760;SDS011;15917;50.014;8.352;2023-02-11T16:33:28;35.92;;;14.55;;
28760;SDS011;15917;50.014;8.352;2023-02-11T16:35:54;34.15;;;14.38;;
28760;SDS011;15917;50.014;8.352;2023-02-11T16:38:20;28.92;;;14.00;;
28760;SDS011;15917;50.014;8.352;2023-02-11T16:40:46;39.42;;;16.48;;
28760;SDS011;15917;50.014;8.352;2023-02-11T16:43:14;39.90;;;15.23;;
28760;SDS011;15917;50.014;8.352;2023-02-11T16:45:42;31.55;;;14.70;;
28760;SDS011;15917;50.014;8.352;2023-02-11T16:48:08;39.67;;;16.20;;
28760;SDS011;15917;50.014;8.352;2023-02-11T16:50:37;37.88;;;16.73;;
28760;SDS011;15917;50.014;8.352;2023-02-11T16:53:09;38.72;;;17.50;;
28760;SDS011;15917;50.014;8.352;2023-02-11T16:55:35;37.63;;;16.30;;